Waitsburg, WA (99361)

10:25 AM PST on February 26, 2017 (GMT -0800)
M James MW | | Change Station

Elev 1656 ft 46.21 °N, 118.18 °W | Updated 2 minutes ago

Overcast
Overcast
32.5 °F
Feels Like 25 °F
N
9.0
Wind Variable Wind from SSW
Gusts 11.0 mph

Today
High -- | Low -- °F
--% Chance of Precip.
Yesterday
High -- | Low -- °F
Precip. -- in
Pressure 29.78 in
Visibility 9.0 miles
Clouds Scattered Clouds 2700 ft
Mostly Cloudy 3600 ft
Overcast 4600 ft
Windchill 25 °F
Dew Point 32 °F
Humidity 96%
Rainfall 0.02 in
Snow Depth Not available.
6:36 AM 5:35 PM
New Moon, 0% visible
METAR KALW 261753Z 19007KT 9SM SCT027 BKN036 OVC046 02/M01 A2975 RMK AO2 SNE49 SLP084 P0001 60012 T00221006 10022 20006 58012 $
Pressure 29.78 in
Visibility 9.0 miles
Clouds Scattered Clouds 2700 ft
Mostly Cloudy 3600 ft
Overcast 4600 ft
Windchill 25 °F
Dew Point 32 °F
Humidity 96%
Rainfall 0.02 in
Snow Depth Not available.
6:36 AM 5:35 PM
New Moon, 0% visible
METAR KALW 261753Z 19007KT 9SM SCT027 BKN036 OVC046 02/M01 A2975 RMK AO2 SNE49 SLP084 P0001 60012 T00221006 10022 20006 58012 $

Get Your Daily Forecast Email!

Thanks for signing up!

Be on the lookout for a verification email in your inbox.

You'll start receiving the daily forecast at 8 AM.

×

10-Day Weather Forecast

Almanac

Astronomy

Feb. 26, 2017 Rise Set
Actual Time
Civil Twilight
Nautical Twilight
Astronomical Twilight
Moon
Length of Visible Light
Length of Day
Tomorrow will be .
, % of the Moon is Illuminated

Today's Extremes

State Highs State Lows

Community

WunderPhotos

Upload Photos

1,962,540 photos uploaded!

WunderBlog® & News

Nearby

Air Quality

  Air Quality AQ Index Pollutant
Not available.

Snow Depth

Station Depth Elevation

Earthquake Activity

City Distance Mag. Time & Date
Minimum magnitude displayed is 2.5.

Coastal Water Temperatures

Place Temperature

Stations

Nearby Weather Stations

Station Location Temp. Windchill Dew Point Humidity Wind Precip. Elev Updated Type
                   

Watches & Warnings

There are currently no watches in effect.